Weather reports worldwide

Advertisment
Lagunas de Somoza, Spain (8123): temperature & dewpoint: 13.03.2019 09:00:00 - 19.03.2019 09:00:00 (CET)Lagunas de Somoza, Spain (8123): wind speed & gusts: 13.03.2019 09:00:00 - 19.03.2019 09:00:00 (CET)Lagunas de Somoza, Spain (8123): wind direction: 13.03.2019 09:00:00 - 19.03.2019 09:00:00 (CET)Lagunas de Somoza, Spain (8123): precipitation: 13.03.2019 09:00:00 - 19.03.2019 09:00:00 (CET)
Date & Time tt [°C] td [°C] ff [km/h] ff [kn] fx [km/h] fx [kn] dd rr [mm]
19.03.2019 09:00:00 4,7 -0,3 8 4 13 7 E 0,0
19.03.2019 08:00:00 -0,5 -1,6 10 6 15 8 ESE 0,0
19.03.2019 07:00:00 -2,5 -3,2 6 3 9 5 E -
19.03.2019 06:00:00 -2,6 -3,4 4 2 9 5 SE 0,0
19.03.2019 05:00:00 -2,1 -3,2 5 3 10 6 ESE 0,0
19.03.2019 04:00:00 -1,3 -2,6 6 4 9 5 E 0,0
19.03.2019 03:00:00 -0,5 -2,2 6 4 12 6 ESE 0,0
19.03.2019 02:00:00 -0,6 -2,5 7 4 13 7 E 0,0
19.03.2019 01:00:00 -0,1 -2,3 9 5 12 6 E -
19.03.2019 00:00:00 -0,1 -2,8 0 0 8 4 WNW 0,0
18.03.2019 23:00:00 0,3 -3,6 5 3 8 4 ESE 0,0
18.03.2019 22:00:00 3,6 -3,6 4 2 9 5 WSW 0,0
18.03.2019 21:00:00 4,4 -4,6 5 3 9 5 SSW 0,0
18.03.2019 20:00:00 7,2 -4,8 5 3 15 8 WNW 0,0
18.03.2019 19:00:00 10,8 -3,6 10 5 16 9 NW -
18.03.2019 18:00:00 12,7 -3,1 8 4 14 8 WNW 0,0
18.03.2019 17:00:00 12,5 -2,9 7 4 16 9 W 0,0
18.03.2019 16:00:00 12,6 -2,4 6 3 17 9 NW 0,0
18.03.2019 15:00:00 11,3 -3,6 4 2 17 9 WNW 0,0
18.03.2019 14:00:00 10,4 -3,6 4 2 19 10 W 0,0
18.03.2019 13:00:00 9,1 -3,4 8 4 22 12 W -
18.03.2019 12:00:00 7,3 -5,0 6 3 19 10 SSW 0,0
18.03.2019 11:00:00 6,7 -4,6 5 3 18 10 WSW 0,0
18.03.2019 10:00:00 4,9 -4,1 4 2 9 5 SW 0,0
18.03.2019 09:00:00 2,2 -2,9 6 4 12 7 ESE 0,0
18.03.2019 08:00:00 -4,6 -6,1 5 3 9 5 ESE 0,0
18.03.2019 07:00:00 -4,1 -5,1 5 3 9 5 S -
18.03.2019 06:00:00 -4,0 -4,7 4 2 10 6 SSE 0,0
18.03.2019 05:00:00 -4,5 -5,3 1 0 10 5 SE 0,0
18.03.2019 04:00:00 -4,3 -5,3 7 4 10 5 ESE 0,0
18.03.2019 03:00:00 -3,7 -5,1 4 2 11 6 SE 0,0
18.03.2019 02:00:00 -2,2 -4,5 3 2 6 4 SSE 0,0
18.03.2019 01:00:00 0,5 -3,0 3 2 23 12 SSW -
18.03.2019 00:00:00 1,0 -2,6 13 7 23 12 SSE 0,0
17.03.2019 23:00:00 2,0 -2,5 9 5 22 12 S 0,0
17.03.2019 22:00:00 2,9 -2,8 11 6 24 13 S 0,0
17.03.2019 21:00:00 4,3 -2,3 12 7 29 15 S 0,0
17.03.2019 20:00:00 5,0 -1,9 18 10 23 12 ESE 0,0
17.03.2019 19:00:00 7,4 -1,3 14 7 28 15 ESE -
17.03.2019 18:00:00 9,0 -1,1 18 10 29 15 SE 0,0
17.03.2019 17:00:00 11,1 0,2 19 10 32 17 ESE 0,0
17.03.2019 16:00:00 10,8 0,8 20 11 38 20 SE 0,0
17.03.2019 15:00:00 9,7 0,9 20 11 37 20 SE 0,0
17.03.2019 14:00:00 11,3 1,0 16 9 39 21 SE 0,0
17.03.2019 13:00:00 10,1 1,5 21 11 34 19 SE -
17.03.2019 12:00:00 8,7 3,1 18 10 33 18 SSE 0,0
17.03.2019 11:00:00 8,4 3,7 22 12 42 23 SE 0,0
17.03.2019 10:00:00 7,8 3,7 25 14 40 21 SE 0,0
17.03.2019 09:00:00 7,2 3,6 23 12 36 19 SE 0,0
17.03.2019 08:00:00 4,7 3,0 21 11 40 21 ESE 0,0
17.03.2019 07:00:00 4,6 2,1 25 14 40 22 SE -
17.03.2019 06:00:00 5,3 0,9 19 10 34 18 SE 0,0
17.03.2019 05:00:00 5,5 -1,8 12 6 30 16 SE 0,0
17.03.2019 04:00:00 3,2 -2,1 6 4 26 14 S 0,0
17.03.2019 03:00:00 6,3 -5,0 2 1 18 10 S 0,0
17.03.2019 02:00:00 2,7 -6,9 5 3 11 6 SSW 0,0
17.03.2019 01:00:00 3,1 -8,2 6 3 11 6 SE -
17.03.2019 00:00:00 8,2 -6,3 8 4 16 9 S 0,0
16.03.2019 23:00:00 6,8 -6,1 8 4 15 8 SSE 0,0
16.03.2019 22:00:00 7,6 -5,4 15 8 21 12 ESE 0,0
16.03.2019 21:00:00 11,0 -4,2 10 6 20 11 E 0,0
16.03.2019 20:00:00 11,3 -6,0 9 5 29 16 E 0,0
16.03.2019 19:00:00 16,7 -3,4 16 9 29 16 ESE -
16.03.2019 18:00:00 19,2 -3,6 16 9 31 17 ENE 0,0
16.03.2019 17:00:00 19,9 -2,4 19 10 35 19 ENE 0,0
16.03.2019 16:00:00 19,9 -2,4 22 12 34 18 NNE 0,0
16.03.2019 15:00:00 20,0 -1,7 20 11 40 21 NE 0,0
16.03.2019 14:00:00 19,6 -0,4 17 9 31 17 NE 0,0
16.03.2019 13:00:00 17,0 2,6 9 5 18 10 W -
16.03.2019 12:00:00 13,9 0,9 5 3 12 7 NW 0,0
16.03.2019 11:00:00 11,7 0,8 3 2 8 4 WNW 0,0
16.03.2019 10:00:00 9,1 0,6 0 0 2 1 NNW 0,0
16.03.2019 09:00:00 4,2 2,1 0 0 7 4 N 0,0
16.03.2019 08:00:00 -1,6 -3,0 2 1 9 5 SSE 0,0
16.03.2019 07:00:00 -1,5 -3,1 6 4 9 5 SE -
16.03.2019 06:00:00 -0,5 -2,7 4 2 7 4 SE 0,0
16.03.2019 05:00:00 0,2 -2,2 4 2 8 4 SSW 0,0
16.03.2019 04:00:00 0,0 -2,9 5 3 10 5 SSE 0,0
16.03.2019 03:00:00 1,8 -2,3 4 2 7 4 S 0,0
16.03.2019 02:00:00 2,4 -4,1 6 3 8 4 SSE 0,0
16.03.2019 01:00:00 2,9 -5,0 4 2 7 4 SSE -
16.03.2019 00:00:00 4,7 -4,5 1 1 11 6 SSE 0,0
15.03.2019 23:00:00 5,2 -5,4 8 4 13 7 SE 0,0
15.03.2019 22:00:00 6,7 -5,9 8 5 11 6 SE 0,0
15.03.2019 21:00:00 8,0 -8,5 4 2 8 5 SSE 0,0
15.03.2019 20:00:00 11,6 -10,5 2 1 14 8 SSE 0,0
15.03.2019 19:00:00 17,5 -9,3 10 5 16 8 S -
15.03.2019 18:00:00 19,8 -8,4 9 5 18 10 SSW 0,0
15.03.2019 17:00:00 21,0 -7,4 10 5 17 9 SSW 0,0
15.03.2019 16:00:00 21,1 -5,6 5 3 21 11 S 0,0
15.03.2019 15:00:00 20,1 0,0 4 2 15 8 N 0,0
15.03.2019 14:00:00 19,4 0,9 7 4 14 8 NNW 0,0
15.03.2019 13:00:00 17,1 0,3 3 2 14 7 NNE -
15.03.2019 12:00:00 14,2 0,8 4 2 11 6 NNW 0,0
15.03.2019 11:00:00 11,2 0,3 4 2 9 5 NNW 0,0
15.03.2019 10:00:00 7,8 -0,2 0 0 4 2 NNW 0,0
15.03.2019 09:00:00 3,3 0,9 1 1 4 2 WSW 0,0
15.03.2019 08:00:00 -3,4 -4,8 0 0 8 4 SSE 0,0
15.03.2019 07:00:00 -3,3 -5,3 1 1 6 3 S -
15.03.2019 06:00:00 -2,8 -6,2 2 1 9 5 S 0,0
15.03.2019 05:00:00 -1,8 -6,5 3 1 10 6 ESE 0,0
15.03.2019 04:00:00 -1,2 -9,0 6 4 12 7 ESE 0,0
15.03.2019 03:00:00 0,5 -10,6 1 0 10 5 NNW 0,0
15.03.2019 02:00:00 2,2 -10,9 4 2 12 7 S 0,0
15.03.2019 01:00:00 4,7 -10,5 9 5 16 9 SE -
15.03.2019 00:00:00 6,8 -8,7 12 6 21 11 SE 0,0
14.03.2019 23:00:00 5,7 -8,1 13 7 21 12 SE 0,0
14.03.2019 22:00:00 8,2 -5,6 14 7 22 12 SSE 0,0
14.03.2019 21:00:00 8,7 -5,1 8 4 27 14 SE 0,0
14.03.2019 20:00:00 7,3 -6,7 15 8 19 10 SE 0,0
14.03.2019 19:00:00 13,8 -7,5 8 4 20 11 S -
14.03.2019 18:00:00 15,9 -8,3 13 7 29 16 SSE 0,0
14.03.2019 17:00:00 16,2 -9,6 16 9 29 16 SSE 0,0
14.03.2019 16:00:00 16,4 -8,6 17 9 31 17 SSE 0,0
14.03.2019 15:00:00 15,3 -9,5 18 10 33 18 SSE 0,0
14.03.2019 14:00:00 15,3 -8,8 11 6 22 12 SSE 0,0
14.03.2019 13:00:00 13,7 -5,4 5 3 19 10 S -
14.03.2019 12:00:00 11,0 -1,7 3 2 9 5 NNW 0,0
14.03.2019 11:00:00 7,7 0,0 1 1 12 7 WNW 0,0
14.03.2019 10:00:00 5,5 -1,2 4 2 7 4 WNW 0,0
14.03.2019 09:00:00 1,3 -2,6 0 0 6 3 N 0,0
14.03.2019 08:00:00 -3,8 -7,6 1 1 11 6 S 0,0
14.03.2019 07:00:00 -4,7 -6,7 9 5 12 6 SE -
14.03.2019 06:00:00 -4,3 -6,6 6 3 9 5 SE 0,0
14.03.2019 05:00:00 -4,1 -6,1 5 3 9 5 S 0,0
14.03.2019 04:00:00 -2,6 -4,9 1 1 5 3 NNW 0,0
14.03.2019 03:00:00 -0,9 -4,2 0 0 8 5 NW 0,0
14.03.2019 02:00:00 0,9 -3,2 6 3 18 10 S 0,0
14.03.2019 01:00:00 1,4 -2,9 7 4 16 9 S -
14.03.2019 00:00:00 1,5 -2,3 3 1 28 15 ESE 0,0
13.03.2019 23:00:00 2,5 -2,0 14 7 26 14 SSE 0,0
13.03.2019 22:00:00 2,6 -1,7 10 5 16 9 ESE 0,0
13.03.2019 21:00:00 3,0 -1,9 8 5 30 16 SSE 0,0
13.03.2019 20:00:00 3,9 -1,2 21 12 31 17 SSE 0,0
13.03.2019 19:00:00 5,8 -2,0 22 12 31 17 SE -
13.03.2019 18:00:00 7,3 -1,6 23 13 42 23 SE 0,0
13.03.2019 17:00:00 8,2 -1,8 23 12 37 20 S 0,0
13.03.2019 16:00:00 8,5 -1,8 24 13 40 21 SW 0,0
13.03.2019 15:00:00 - - - - - - - -
13.03.2019 14:00:00 7,5 -0,4 23 12 41 22 W 0,0
13.03.2019 13:00:00 6,3 -1,1 21 11 38 21 W -
13.03.2019 12:00:00 5,7 -0,8 19 10 39 21 W 0,0
13.03.2019 11:00:00 4,7 -1,1 26 14 40 21 W 0,0
13.03.2019 10:00:00 3,5 -1,1 24 13 34 19 W 0,0
13.03.2019 09:00:00 2,5 -0,9 16 9 23 13 WNW 0,0

tt = temperature
td = dewpoint
ff = wind speed
fx = gusts
dd = wind direction
rr = precipitation

Next stations